Time;durP1;ratioP1;P1;durP2;ratioP2;P2;SDS_P1;SDS_P2;PMS_P1;PMS_P2;Temp;Humidity;BMP_temperature;BMP_pressure;BME280_temperature;BME280_humidity;BME280_pressure;Samples;Min_cycle;Max_cycle;Signal;HPM_P1;HPM_P2
2023/12/01 00:02:26;;;;;;;9.32;4.68;;;;;;;2.41;66.64;98482.34;10440262;28;20052;-66
2023/12/01 00:07:28;;;;;;;10.10;4.55;;;;;;;2.47;66.60;98487.22;10439612;28;20052;-67
2023/12/01 00:12:31;;;;;;;11.43;4.53;;;;;;;2.56;66.40;98502.25;10438813;28;20052;-67
2023/12/01 00:17:33;;;;;;;9.77;4.85;;;;;;;2.56;66.42;98499.66;10438235;28;20098;-67
2023/12/01 00:22:35;;;;;;;10.45;3.83;;;;;;;2.56;66.07;98489.34;10438379;28;20543;-66
2023/12/01 00:27:38;;;;;;;10.02;4.30;;;;;;;2.37;65.89;98483.41;10420779;28;20199;-66
2023/12/01 00:32:41;;;;;;;8.60;4.03;;;;;;;2.27;65.74;98490.78;10438624;28;20136;-66
2023/12/01 00:37:43;;;;;;;8.52;3.60;;;;;;;2.26;66.00;98499.41;10438839;28;20463;-66
2023/12/01 00:42:45;;;;;;;7.55;3.50;;;;;;;2.31;65.69;98486.31;10438402;28;20049;-67
2023/12/01 00:47:47;;;;;;;6.65;3.03;;;;;;;2.14;65.68;98489.69;10420420;28;20489;-66
2023/12/01 00:52:49;;;;;;;8.52;3.95;;;;;;;2.18;65.97;98480.91;10437664;28;20134;-66
2023/12/01 00:57:53;;;;;;;7.60;3.63;;;;;;;2.19;65.83;98482.59;10419950;28;20045;-66
2023/12/01 01:02:56;;;;;;;9.82;3.97;;;;;;;2.18;65.87;98496.38;10419263;28;20041;-67
2023/12/01 01:07:58;;;;;;;6.30;3.42;;;;;;;2.06;65.39;98515.03;10453712;28;20300;-67
2023/12/01 01:13:00;;;;;;;4.82;2.63;;;;;;;1.92;65.71;98522.56;10399063;28;20511;-68
2023/12/01 01:18:03;;;;;;;5.68;3.17;;;;;;;1.97;65.61;98534.34;10419886;28;20416;-67
2023/12/01 01:23:05;;;;;;;6.88;3.10;;;;;;;1.78;65.25;98522.41;10414449;28;20048;-67
2023/12/01 01:28:08;;;;;;;5.78;3.20;;;;;;;1.81;65.73;98529.97;10436383;28;20041;-66
2023/12/01 01:33:10;;;;;;;5.47;3.03;;;;;;;1.97;65.77;98539.50;10436013;28;20045;-66
2023/12/01 01:38:12;;;;;;;5.07;2.60;;;;;;;2.03;65.43;98546.13;10436362;28;20102;-67
2023/12/01 01:43:23;;;;;;;5.28;2.80;;;;;;;1.82;64.82;98550.53;10417961;28;20041;-66
2023/12/01 01:48:25;;;;;;;5.75;2.83;;;;;;;1.61;65.57;98548.94;10435476;28;20111;-66
2023/12/01 01:53:27;;;;;;;5.63;2.60;;;;;;;1.44;65.61;98548.88;10436445;28;20052;-66
2023/12/01 01:58:29;;;;;;;4.43;2.22;;;;;;;1.34;65.77;98548.44;10451257;28;20132;-67
2023/12/01 02:03:31;;;;;;;4.38;2.97;;;;;;;1.29;65.51;98550.41;10403032;28;20136;-67
2023/12/01 02:08:33;;;;;;;4.45;2.20;;;;;;;1.33;65.55;98546.78;10400465;28;20037;-66
2023/12/01 02:13:36;;;;;;;4.30;2.25;;;;;;;1.10;65.34;98548.66;10416235;28;20049;-67
2023/12/01 02:18:38;;;;;;;4.13;2.17;;;;;;;0.93;65.20;98551.97;10416708;28;20106;-66
2023/12/01 02:23:40;;;;;;;4.57;2.40;;;;;;;0.94;65.44;98543.38;10449649;28;20051;-67
2023/12/01 02:28:42;;;;;;;4.05;2.08;;;;;;;1.06;65.34;98563.44;10449184;28;20523;-66
2023/12/01 02:33:44;;;;;;;3.78;2.13;;;;;;;1.10;65.16;98557.25;10433739;28;20052;-67
2023/12/01 02:39:07;;;;;;;3.47;1.67;;;;;;;1.08;65.23;98566.78;10434189;28;20053;-66
2023/12/01 02:44:09;;;;;;;2.60;1.50;;;;;;;1.06;64.17;98580.59;10412297;28;20045;-67
2023/12/01 02:49:11;;;;;;;2.47;1.52;;;;;;;1.09;64.83;98578.75;10433421;28;20044;-67
2023/12/01 02:54:13;;;;;;;2.97;1.95;;;;;;;1.23;64.83;98568.69;10433561;28;20730;-66
2023/12/01 02:59:15;;;;;;;4.25;1.80;;;;;;;1.29;64.94;98583.03;10416105;28;20053;-66
2023/12/01 03:04:17;;;;;;;2.88;1.80;;;;;;;1.38;64.63;98573.16;10434164;28;20091;-67
2023/12/01 03:09:19;;;;;;;3.70;2.00;;;;;;;1.41;64.35;98559.31;10433338;28;20040;-66
2023/12/01 03:14:22;;;;;;;2.88;1.77;;;;;;;1.57;64.72;98565.44;10415247;28;20041;-66
2023/12/01 03:19:25;;;;;;;3.55;1.75;;;;;;;1.59;64.29;98558.47;10432748;28;20049;-66
2023/12/01 03:24:27;;;;;;;3.10;1.90;;;;;;;1.62;64.44;98562.66;10435159;28;20147;-66
2023/12/01 03:29:32;;;;;;;3.25;1.77;;;;;;;1.62;64.33;98553.19;10441665;28;20049;-67
2023/12/01 03:34:34;;;;;;;3.45;2.08;;;;;;;1.63;64.62;98549.69;10441366;28;20575;-66
2023/12/01 03:39:36;;;;;;;2.92;1.80;;;;;;;1.60;64.65;98559.31;10423617;28;20041;-66
2023/12/01 03:44:39;;;;;;;3.63;1.92;;;;;;;1.67;64.61;98558.13;10440220;28;20167;-66
2023/12/01 03:49:41;;;;;;;5.80;1.90;;;;;;;1.66;64.71;98570.19;10419874;28;20048;-67
2023/12/01 03:54:43;;;;;;;2.75;1.70;;;;;;;1.66;64.75;98575.34;10421596;28;20045;-66
2023/12/01 03:59:45;;;;;;;4.25;2.15;;;;;;;1.52;64.70;98575.13;10440144;28;20045;-66
2023/12/01 04:04:49;;;;;;;3.38;1.77;;;;;;;1.25;64.74;98571.19;10439548;28;20139;-66
2023/12/01 04:09:50;;;;;;;4.50;2.20;;;;;;;1.19;65.05;98585.19;10440651;28;20524;-66
2023/12/01 04:14:53;;;;;;;4.07;2.30;;;;;;;1.24;64.75;98592.69;10439184;28;20451;-67
2023/12/01 04:19:54;;;;;;;3.28;1.80;;;;;;;1.17;64.81;98596.44;10421460;28;20145;-66
2023/12/01 04:24:57;;;;;;;4.50;1.88;;;;;;;1.16;64.73;98599.91;10418855;28;20041;-67
2023/12/01 04:29:59;;;;;;;3.38;1.55;;;;;;;1.02;64.58;98597.94;10436988;28;20051;-66
2023/12/01 04:35:01;;;;;;;2.97;1.85;;;;;;;0.98;64.82;98591.22;10438411;28;20501;-67
2023/12/01 04:40:04;;;;;;;4.05;1.73;;;;;;;1.07;64.40;98588.28;10439741;28;20103;-66
2023/12/01 04:45:07;;;;;;;3.17;1.98;;;;;;;0.94;64.69;98584.53;10438938;28;20573;-66
2023/12/01 04:50:13;;;;;;;4.47;2.35;;;;;;;0.85;64.98;98574.63;10438342;28;20036;-67
2023/12/01 04:55:17;;;;;;;4.35;2.20;;;;;;;0.95;64.70;98578.47;10419405;28;20142;-66
2023/12/01 05:00:22;;;;;;;2.97;1.83;;;;;;;0.93;64.69;98592.34;10437874;28;20502;-66
2023/12/01 05:05:30;;;;;;;3.15;1.90;;;;;;;0.98;64.29;98585.25;10419679;28;20139;-66
2023/12/01 05:10:34;;;;;;;3.17;1.75;;;;;;;1.10;64.02;98606.16;10419893;28;20406;-66
2023/12/01 05:15:37;;;;;;;3.42;2.00;;;;;;;1.33;63.89;98610.31;10428995;28;20068;-67
2023/12/01 05:20:40;;;;;;;3.60;1.75;;;;;;;1.30;63.31;98626.72;10413868;28;20427;-67
2023/12/01 05:25:42;;;;;;;2.75;1.73;;;;;;;1.13;62.86;98636.94;10434381;28;20304;-67
2023/12/01 05:30:48;;;;;;;4.07;2.00;;;;;;;0.94;63.43;98632.59;10433496;28;20459;-66
2023/12/01 05:35:50;;;;;;;4.10;2.00;;;;;;;0.84;63.49;98634.72;10428739;28;20118;-67
2023/12/01 05:40:52;;;;;;;3.10;1.73;;;;;;;0.99;63.67;98639.22;10431875;28;20132;-67
2023/12/01 05:45:54;;;;;;;5.32;2.20;;;;;;;0.85;63.33;98641.53;10398242;28;20099;-67
2023/12/01 05:50:56;;;;;;;4.72;2.42;;;;;;;0.91;63.65;98646.44;10415266;28;20103;-67
2023/12/01 05:55:58;;;;;;;3.53;1.98;;;;;;;0.92;63.43;98647.28;10432318;28;20126;-67
2023/12/01 06:01:00;;;;;;;4.88;2.17;;;;;;;1.02;63.37;98657.13;10433102;28;20045;-67
2023/12/01 06:06:03;;;;;;;5.90;2.60;;;;;;;1.08;63.22;98662.03;10432383;28;20043;-68
2023/12/01 06:11:05;;;;;;;4.45;1.98;;;;;;;1.14;62.81;98672.06;10432423;28;20037;-67
2023/12/01 06:16:07;;;;;;;4.20;2.38;;;;;;;1.18;62.80;98675.34;10408726;28;20492;-66
2023/12/01 06:21:10;;;;;;;5.32;2.00;;;;;;;1.18;62.89;98676.19;10422717;28;20098;-67
2023/12/01 06:26:12;;;;;;;4.15;2.15;;;;;;;1.24;62.94;98675.94;10432150;28;20049;-67
2023/12/01 06:31:14;;;;;;;5.22;2.17;;;;;;;1.34;62.81;98677.22;10430748;28;20497;-67
2023/12/01 06:36:16;;;;;;;3.40;1.70;;;;;;;1.31;62.75;98667.06;10430530;28;20049;-66
2023/12/01 06:41:18;;;;;;;4.03;2.20;;;;;;;1.35;62.91;98678.91;10428990;28;20228;-66
2023/12/01 06:46:20;;;;;;;5.53;2.55;;;;;;;1.47;63.11;98689.56;10430475;28;21257;-66
2023/12/01 06:51:22;;;;;;;4.82;1.98;;;;;;;1.59;63.17;98686.47;10430250;28;20075;-67
2023/12/01 06:56:24;;;;;;;4.53;2.10;;;;;;;1.65;63.06;98704.22;10430578;28;20048;-67
2023/12/01 07:01:26;;;;;;;7.70;2.55;;;;;;;1.73;63.04;98707.31;10412311;28;20053;-67
2023/12/01 07:06:28;;;;;;;4.38;2.40;;;;;;;1.68;62.95;98732.47;10397568;28;20057;-67
2023/12/01 07:11:31;;;;;;;5.93;2.60;;;;;;;1.67;62.89;98734.19;10427857;28;20049;-67
2023/12/01 07:16:33;;;;;;;5.75;2.83;;;;;;;1.59;62.46;98725.97;10428268;28;20131;-67
2023/12/01 07:21:35;;;;;;;7.32;3.10;;;;;;;1.57;62.74;98725.19;10425476;28;20501;-67
2023/12/01 07:26:37;;;;;;;3.60;2.05;;;;;;;1.58;62.70;98731.19;10430481;28;20072;-67
2023/12/01 07:31:39;;;;;;;5.18;2.38;;;;;;;1.69;62.80;98731.53;10430301;28;20043;-67
2023/12/01 07:36:41;;;;;;;5.22;2.30;;;;;;;1.57;61.92;98738.06;10431263;28;20414;-67
2023/12/01 07:41:43;;;;;;;5.45;2.60;;;;;;;1.36;62.25;98726.94;10412207;28;20666;-67
2023/12/01 07:46:45;;;;;;;5.80;3.05;;;;;;;1.40;62.06;98734.53;10426074;28;20064;-66
2023/12/01 07:51:47;;;;;;;4.72;2.17;;;;;;;1.38;62.12;98738.91;10429647;28;20114;-66
2023/12/01 07:56:49;;;;;;;5.90;2.85;;;;;;;1.45;61.98;98732.59;10428171;28;20451;-66
2023/12/01 08:01:52;;;;;;;5.57;2.22;;;;;;;1.44;62.26;98739.50;10428995;28;20413;-66
2023/12/01 08:06:56;;;;;;;4.82;2.45;;;;;;;1.31;62.34;98731.44;10428343;28;20045;-67
2023/12/01 08:11:58;;;;;;;7.07;3.05;;;;;;;1.50;62.31;98734.09;10432568;28;20047;-67
2023/12/01 08:17:01;;;;;;;5.38;2.42;;;;;;;1.41;61.07;98738.78;10434830;28;20440;-66
2023/12/01 08:22:04;;;;;;;5.35;2.67;;;;;;;1.47;61.67;98739.38;10436345;28;20041;-66
2023/12/01 08:27:05;;;;;;;5.55;2.72;;;;;;;1.55;61.46;98741.59;10434947;28;20047;-67
2023/12/01 08:32:10;;;;;;;6.78;3.17;;;;;;;1.55;61.43;98757.06;10412880;28;20041;-67
2023/12/01 08:37:13;;;;;;;6.50;2.45;;;;;;;1.46;61.18;98766.03;10433689;28;20057;-67
2023/12/01 08:42:23;;;;;;;6.80;2.53;;;;;;;1.46;61.33;98765.19;10432212;28;20045;-67
2023/12/01 08:47:25;;;;;;;7.05;3.13;;;;;;;1.47;60.83;98765.13;10406027;28;20081;-67
2023/12/01 08:52:27;;;;;;;4.05;2.25;;;;;;;1.57;61.15;98765.56;10419354;28;20048;-66
2023/12/01 08:57:29;;;;;;;7.22;3.08;;;;;;;1.44;61.01;98774.72;10424504;28;20635;-67
2023/12/01 09:02:31;;;;;;;6.93;2.55;;;;;;;1.30;61.14;98763.25;10423919;28;20065;-67
2023/12/01 09:07:33;;;;;;;5.75;2.95;;;;;;;1.23;61.36;98774.72;10407615;28;20041;-67
2023/12/01 09:12:35;;;;;;;5.35;2.83;;;;;;;1.15;60.84;98783.63;10405397;28;20071;-67
2023/12/01 09:17:37;;;;;;;5.38;2.75;;;;;;;1.25;61.13;98785.78;10420113;28;20195;-66
2023/12/01 09:22:40;;;;;;;5.97;3.08;;;;;;;1.20;60.39;98779.13;10424846;28;20102;-67
2023/12/01 09:27:42;;;;;;;5.25;2.33;;;;;;;1.39;59.71;98777.47;10432742;28;20041;-69
2023/12/01 09:32:44;;;;;;;5.53;2.35;;;;;;;1.52;59.19;98783.81;10431902;28;20386;-69
2023/12/01 09:37:46;;;;;;;4.43;2.28;;;;;;;1.47;58.51;98790.03;10448605;28;20045;-68
2023/12/01 09:42:48;;;;;;;5.00;2.25;;;;;;;1.39;59.18;98792.94;10433678;28;20045;-68
2023/12/01 09:47:58;;;;;;;3.95;2.30;;;;;;;1.19;58.18;98796.34;10433410;28;20409;-68
2023/12/01 09:53:00;;;;;;;3.22;1.98;;;;;;;1.15;58.95;98799.94;10415254;28;20048;-69
2023/12/01 09:58:03;;;;;;;4.68;2.13;;;;;;;1.25;58.98;98805.53;10432823;28;20352;-68
2023/12/01 10:03:05;;;;;;;4.28;2.25;;;;;;;1.44;59.04;98797.91;10431675;28;20404;-68
2023/12/01 10:08:09;;;;;;;3.47;1.77;;;;;;;1.71;58.83;98795.00;10409794;28;20088;-68
2023/12/01 10:13:11;;;;;;;3.88;2.30;;;;;;;1.65;58.60;98808.16;10430176;28;20292;-68
2023/12/01 10:18:19;;;;;;;3.80;2.25;;;;;;;1.58;58.71;98808.47;10430534;28;20137;-67
2023/12/01 10:23:27;;;;;;;3.72;2.20;;;;;;;1.46;58.25;98799.53;10430532;28;20056;-67
2023/12/01 10:28:39;;;;;;;5.88;2.50;;;;;;;1.50;58.27;98811.38;10431345;28;20392;-67
2023/12/01 10:33:42;;;;;;;4.32;2.17;;;;;;;1.78;59.06;98809.34;10428539;28;20126;-67
2023/12/01 10:38:46;;;;;;;4.88;2.40;;;;;;;1.77;58.39;98807.66;10411658;28;20122;-68
2023/12/01 10:43:50;;;;;;;3.38;2.15;;;;;;;1.72;58.26;98795.88;10410009;28;20041;-67
2023/12/01 10:48:52;;;;;;;5.55;2.20;;;;;;;1.68;58.18;98779.69;10429625;28;21027;-67
2023/12/01 10:53:55;;;;;;;4.35;1.88;;;;;;;1.49;58.41;98776.19;10429109;28;20041;-67
2023/12/01 10:59:01;;;;;;;3.80;1.77;;;;;;;1.44;58.51;98775.56;10423028;28;20095;-67
2023/12/01 11:04:08;;;;;;;3.03;1.77;;;;;;;1.43;58.25;98773.88;10426348;28;20491;-67
2023/12/01 11:09:24;;;;;;;4.25;2.30;;;;;;;1.40;58.13;98775.75;10429966;28;20295;-67
2023/12/01 11:14:27;;;;;;;3.47;1.90;;;;;;;1.56;57.92;98769.91;10426368;28;20644;-67
2023/12/01 11:19:39;;;;;;;3.90;1.70;;;;;;;1.50;57.46;98769.31;10426410;28;20085;-67
2023/12/01 11:24:44;;;;;;;2.63;1.63;;;;;;;1.56;57.60;98772.50;10427709;28;20125;-68
2023/12/01 11:30:07;;;;;;;4.07;1.90;;;;;;;1.60;57.26;98780.91;10429138;28;20231;-67
2023/12/01 11:35:11;;;;;;;2.65;1.55;;;;;;;1.49;57.66;98773.63;10428162;28;20044;-67
2023/12/01 11:40:22;;;;;;;3.22;1.90;;;;;;;1.42;57.43;98771.38;10424034;28;20076;-67
2023/12/01 11:45:37;;;;;;;3.00;1.70;;;;;;;1.52;56.80;98757.22;10430815;28;20937;-67
2023/12/01 11:50:40;;;;;;;2.75;1.60;;;;;;;1.46;57.82;98758.31;10437849;28;20041;-67
2023/12/01 11:55:43;;;;;;;2.20;1.40;;;;;;;1.70;57.68;98761.59;10436930;28;20174;-68
2023/12/01 12:00:45;;;;;;;1.88;1.52;;;;;;;1.60;56.28;98768.88;10439579;28;20540;-67
2023/12/01 12:05:47;;;;;;;3.70;1.60;;;;;;;1.49;57.03;98765.06;10438736;28;20053;-67
2023/12/01 12:10:49;;;;;;;4.07;1.90;;;;;;;1.52;56.55;98777.81;10436293;28;20132;-67
2023/12/01 12:15:51;;;;;;;2.40;1.48;;;;;;;1.62;56.29;98768.81;10435309;28;20885;-67
2023/12/01 12:20:59;;;;;;;3.30;1.77;;;;;;;1.63;56.95;98770.47;10434200;28;20049;-67
2023/12/01 12:26:23;;;;;;;2.95;1.42;;;;;;;1.42;55.55;98767.03;10435428;28;20601;-67
2023/12/01 12:31:31;;;;;;;3.67;1.73;;;;;;;1.57;56.59;98774.16;10433915;28;20496;-67
2023/12/01 12:36:40;;;;;;;2.85;1.38;;;;;;;1.67;56.97;98788.31;10428969;28;20049;-68
2023/12/01 12:41:59;;;;;;;2.92;1.60;;;;;;;1.51;55.71;98789.84;10397085;28;20055;-67
2023/12/01 12:47:04;;;;;;;5.43;1.83;;;;;;;1.48;56.37;98781.44;10432437;28;20115;-66
2023/12/01 12:52:07;;;;;;;2.55;1.60;;;;;;;1.24;55.03;98799.53;10409433;28;20045;-67
2023/12/01 12:57:10;;;;;;;3.67;1.92;;;;;;;1.18;56.80;98794.63;10430128;28;20052;-67
2023/12/01 13:02:17;;;;;;;2.30;1.42;;;;;;;1.30;56.12;98793.28;10396940;28;20053;-67
2023/12/01 13:07:21;;;;;;;3.67;1.95;;;;;;;1.27;56.63;98789.13;10430777;28;20098;-67
2023/12/01 13:12:25;;;;;;;3.00;1.80;;;;;;;1.21;56.23;98797.09;10414127;28;20056;-66
2023/12/01 13:17:30;;;;;;;3.50;1.73;;;;;;;1.29;56.36;98802.78;10428366;28;20053;-66
2023/12/01 13:22:34;;;;;;;3.40;1.90;;;;;;;1.30;55.72;98804.44;10429233;28;21078;-67
2023/12/01 13:27:41;;;;;;;2.70;1.40;;;;;;;1.24;56.38;98802.13;10405313;28;20882;-67
2023/12/01 13:32:45;;;;;;;2.88;1.42;;;;;;;1.07;55.87;98793.41;10427662;28;20081;-68
2023/12/01 13:37:50;;;;;;;2.38;1.42;;;;;;;0.86;56.24;98779.63;10420258;28;20067;-67
2023/12/01 13:42:58;;;;;;;3.88;1.92;;;;;;;0.81;55.96;98783.28;10430593;28;20045;-67
2023/12/01 13:48:01;;;;;;;2.20;1.35;;;;;;;0.78;56.17;98789.38;10406587;28;20048;-68
2023/12/01 13:53:05;;;;;;;1.75;1.23;;;;;;;0.67;55.88;98795.84;10426681;28;20044;-67
2023/12/01 13:58:11;;;;;;;2.50;1.52;;;;;;;0.56;55.60;98787.69;10427708;28;20748;-67
2023/12/01 14:03:15;;;;;;;2.00;1.30;;;;;;;0.60;55.68;98791.81;10427710;28;20049;-67
2023/12/01 14:08:28;;;;;;;2.58;1.60;;;;;;;0.66;55.68;98792.44;10427802;28;20047;-67
2023/12/01 14:13:30;;;;;;;1.55;1.20;;;;;;;0.76;55.89;98791.19;10428079;28;20314;-67
2023/12/01 14:18:32;;;;;;;4.00;1.42;;;;;;;0.84;56.11;98799.44;10429162;28;20076;-66
2023/12/01 14:23:35;;;;;;;2.17;1.45;;;;;;;0.74;55.27;98792.97;10410123;28;20452;-66
2023/12/01 14:28:37;;;;;;;1.67;1.13;;;;;;;0.70;55.82;98806.84;10421642;28;20045;-67
2023/12/01 14:33:39;;;;;;;2.42;1.50;;;;;;;0.72;55.58;98804.22;10430178;28;20041;-67
2023/12/01 14:38:41;;;;;;;2.65;1.20;;;;;;;0.63;55.32;98805.38;10432627;28;20619;-67
2023/12/01 14:43:43;;;;;;;1.95;1.13;;;;;;;0.53;56.04;98810.06;10435293;28;20173;-68
2023/12/01 14:48:46;;;;;;;2.53;1.55;;;;;;;0.44;56.04;98827.56;10434618;28;20049;-66
2023/12/01 14:53:48;;;;;;;6.38;1.98;;;;;;;0.36;56.07;98827.00;10432958;28;20048;-68
2023/12/01 14:58:50;;;;;;;2.10;1.20;;;;;;;0.29;55.65;98833.25;10433580;28;20497;-68
2023/12/01 15:03:53;;;;;;;1.58;1.00;;;;;;;0.24;55.77;98842.88;10432763;28;20045;-68
2023/12/01 15:08:55;;;;;;;3.08;1.50;;;;;;;0.15;56.40;98845.75;10433291;28;20052;-68
2023/12/01 15:13:58;;;;;;;1.85;1.15;;;;;;;0.18;55.84;98873.94;10433048;28;20053;-68
2023/12/01 15:18:59;;;;;;;2.97;1.55;;;;;;;0.18;55.92;98874.75;10432503;28;20052;-68
2023/12/01 15:24:02;;;;;;;3.95;1.75;;;;;;;0.21;56.35;98881.53;10422247;28;20044;-68
2023/12/01 15:29:04;;;;;;;3.72;1.80;;;;;;;0.26;56.28;98862.47;10456562;28;20060;-68
2023/12/01 15:34:06;;;;;;;1.67;1.20;;;;;;;0.34;56.12;98860.47;10455790;28;20491;-68
2023/12/01 15:39:08;;;;;;;3.20;1.70;;;;;;;0.12;56.50;98849.25;10417730;28;20053;-68
2023/12/01 15:44:11;;;;;;;2.72;1.58;;;;;;;0.13;56.88;98852.69;10441384;28;20080;-68
2023/12/01 15:49:13;;;;;;;2.95;1.48;;;;;;;0.09;56.23;98848.53;10439862;28;20166;-68
2023/12/01 15:54:15;;;;;;;5.63;1.75;;;;;;;0.11;56.37;98857.03;10440422;28;20158;-68
2023/12/01 15:59:17;;;;;;;2.55;1.50;;;;;;;0.02;56.17;98852.19;10439608;28;20059;-68
2023/12/01 16:04:18;;;;;;;3.20;1.63;;;;;;;-0.05;56.61;98845.63;10439356;28;20127;-68
2023/12/01 16:09:21;;;;;;;6.25;2.13;;;;;;;-0.13;56.58;98852.75;10422231;28;20044;-69
2023/12/01 16:14:23;;;;;;;4.47;1.77;;;;;;;-0.09;56.46;98834.59;10439421;28;20127;-68
2023/12/01 16:19:25;;;;;;;2.40;1.52;;;;;;;0.03;56.68;98851.31;10439023;28;20140;-68
2023/12/01 16:24:27;;;;;;;4.10;2.03;;;;;;;0.05;56.61;98852.97;10438736;28;20048;-68
2023/12/01 16:29:34;;;;;;;4.43;2.25;;;;;;;-0.15;56.71;98864.81;10418492;28;20044;-68
2023/12/01 16:34:36;;;;;;;3.47;2.15;;;;;;;-0.05;56.70;98877.28;10437049;28;20127;-68
2023/12/01 16:39:38;;;;;;;5.68;2.15;;;;;;;-0.07;56.82;98889.34;10437045;28;20950;-68
2023/12/01 16:44:40;;;;;;;3.75;1.75;;;;;;;-0.22;56.34;98904.41;10438360;28;20159;-68
2023/12/01 16:49:42;;;;;;;5.10;2.65;;;;;;;-0.31;56.47;98891.00;10438488;28;20041;-68
2023/12/01 16:54:44;;;;;;;4.72;2.05;;;;;;;-0.05;56.58;98903.00;10403537;28;20146;-68
2023/12/01 16:59:46;;;;;;;5.60;2.40;;;;;;;-0.19;56.39;98889.78;10420252;28;20107;-69
2023/12/01 17:04:48;;;;;;;5.15;2.33;;;;;;;-0.20;56.75;98889.78;10437855;28;20051;-68
2023/12/01 17:09:50;;;;;;;4.85;2.30;;;;;;;-0.11;56.68;98890.34;10437502;28;20045;-68
2023/12/01 17:14:52;;;;;;;5.60;2.53;;;;;;;-0.14;56.69;98895.56;10437226;28;20052;-68
2023/12/01 17:19:54;;;;;;;5.07;2.38;;;;;;;-0.13;56.72;98887.00;10435796;28;20497;-68
2023/12/01 17:24:57;;;;;;;4.65;2.17;;;;;;;-0.05;56.85;98900.44;10436609;28;20072;-69
2023/12/01 17:29:59;;;;;;;4.75;1.95;;;;;;;0.06;56.91;98911.16;10436137;28;20160;-68
2023/12/01 17:35:01;;;;;;;4.38;2.05;;;;;;;0.11;56.56;98895.59;10436598;28;20052;-68
2023/12/01 17:40:04;;;;;;;4.57;2.13;;;;;;;0.11;56.64;98888.72;10436413;28;20047;-68
2023/12/01 17:45:06;;;;;;;4.03;2.08;;;;;;;-0.14;56.74;98899.88;10417502;28;20049;-66
2023/12/01 17:50:08;;;;;;;7.50;2.72;;;;;;;-0.21;56.61;98904.41;10435791;28;20048;-67
2023/12/01 17:55:10;;;;;;;5.70;2.78;;;;;;;-0.19;57.16;98889.78;10435564;28;20053;-66
2023/12/01 18:00:13;;;;;;;6.20;2.33;;;;;;;-0.27;56.77;98901.19;10435600;28;20129;-66
2023/12/01 18:05:16;;;;;;;4.55;2.15;;;;;;;-0.15;57.14;98885.34;10417346;28;20049;-66
2023/12/01 18:10:18;;;;;;;4.80;2.45;;;;;;;-0.05;57.84;98892.72;10432337;28;20091;-67
2023/12/01 18:15:20;;;;;;;8.07;2.05;;;;;;;-0.20;56.52;98892.38;10434566;28;20167;-67
2023/12/01 18:20:24;;;;;;;5.18;1.80;;;;;;;0.06;56.85;98885.47;10434944;28;20052;-68
2023/12/01 18:25:27;;;;;;;4.97;2.10;;;;;;;0.05;56.56;98909.50;10433330;28;20074;-69
2023/12/01 18:30:29;;;;;;;4.20;1.83;;;;;;;-0.22;56.96;98938.66;10417191;28;20091;-68
2023/12/01 18:35:31;;;;;;;3.95;2.20;;;;;;;-0.35;56.87;98924.53;10434513;28;20045;-66
2023/12/01 18:40:33;;;;;;;6.57;2.70;;;;;;;-0.38;57.11;98920.34;10433132;28;20155;-67
2023/12/01 18:45:35;;;;;;;4.53;2.22;;;;;;;-0.26;57.32;98918.25;10416340;28;20463;-66
2023/12/01 18:50:37;;;;;;;4.10;1.90;;;;;;;-0.28;57.06;98931.16;10433894;28;20118;-66
2023/12/01 18:55:39;;;;;;;5.93;2.42;;;;;;;-0.20;57.11;98934.31;10433398;28;20053;-66
2023/12/01 19:00:41;;;;;;;4.18;2.20;;;;;;;-0.43;56.78;98927.34;10433991;28;20040;-66
2023/12/01 19:05:43;;;;;;;4.18;2.20;;;;;;;-0.41;57.28;98933.28;10433861;28;20130;-67
2023/12/01 19:10:45;;;;;;;4.97;2.38;;;;;;;-0.40;57.43;98934.13;10415223;28;20056;-67
2023/12/01 19:15:47;;;;;;;4.45;2.20;;;;;;;-0.37;57.19;98950.25;10432829;28;20895;-67
2023/12/01 19:20:49;;;;;;;6.40;2.60;;;;;;;-0.38;57.06;98940.91;10432134;28;20063;-66
2023/12/01 19:25:51;;;;;;;4.72;2.53;;;;;;;-0.45;57.52;98948.81;10413422;28;20157;-66
2023/12/01 19:30:53;;;;;;;3.67;2.10;;;;;;;-0.47;57.46;98955.72;10415773;28;20128;-66
2023/12/01 19:35:55;;;;;;;5.25;2.90;;;;;;;-0.41;57.25;98978.66;10413147;28;20071;-67
2023/12/01 19:40:57;;;;;;;6.63;2.65;;;;;;;-0.46;57.51;98983.97;10431383;28;20087;-66
2023/12/01 19:45:59;;;;;;;7.88;2.80;;;;;;;-0.64;57.58;98988.81;10432735;28;20658;-67
2023/12/01 19:51:01;;;;;;;5.13;2.25;;;;;;;-0.53;57.57;98986.75;10427535;28;20418;-67
2023/12/01 19:56:04;;;;;;;5.43;2.20;;;;;;;-0.66;57.68;98968.31;10431323;28;20053;-66
2023/12/01 20:01:09;;;;;;;6.85;3.05;;;;;;;-0.59;57.61;98951.81;10432420;28;20539;-67
2023/12/01 20:06:11;;;;;;;4.88;2.13;;;;;;;-0.75;57.55;98955.75;10434529;28;20041;-67
2023/12/01 20:11:13;;;;;;;5.00;2.22;;;;;;;-0.87;57.57;98947.56;10419029;28;20125;-67
2023/12/01 20:16:15;;;;;;;5.03;2.35;;;;;;;-0.82;57.48;98959.34;10434657;28;20438;-67
2023/12/01 20:21:18;;;;;;;5.85;2.63;;;;;;;-0.82;57.11;98974.75;10410858;28;20068;-67
2023/12/01 20:26:20;;;;;;;5.90;2.50;;;;;;;-0.78;57.14;98986.63;10436831;28;20159;-67
2023/12/01 20:31:22;;;;;;;4.85;2.47;;;;;;;-0.96;57.09;98981.19;10437590;28;20045;-67
2023/12/01 20:36:24;;;;;;;4.75;2.58;;;;;;;-0.85;56.88;98982.56;10437266;28;20131;-66
2023/12/01 20:41:29;;;;;;;5.53;2.33;;;;;;;-0.76;56.54;98989.16;10438499;28;20064;-66
2023/12/01 20:46:31;;;;;;;4.10;2.28;;;;;;;-0.68;56.27;98995.75;10440028;28;20534;-66
2023/12/01 20:51:33;;;;;;;5.28;2.35;;;;;;;-0.94;56.63;98977.69;10420611;28;20041;-66
2023/12/01 20:56:35;;;;;;;4.38;2.28;;;;;;;-0.96;56.34;98981.19;10434295;28;20041;-67
2023/12/01 21:01:36;;;;;;;6.38;2.70;;;;;;;-1.11;56.54;98976.50;10432541;28;20048;-67
2023/12/01 21:06:38;;;;;;;5.25;2.35;;;;;;;-1.09;56.68;98974.72;10405360;28;20040;-67
2023/12/01 21:11:41;;;;;;;3.28;2.20;;;;;;;-1.16;56.49;98984.31;10435468;28;20049;-66
2023/12/01 21:16:42;;;;;;;4.03;2.40;;;;;;;-1.01;56.63;98994.16;10435385;28;20052;-66
2023/12/01 21:21:44;;;;;;;4.20;1.60;;;;;;;-1.04;56.51;98986.53;10434663;28;20041;-67
2023/12/01 21:26:48;;;;;;;4.68;2.08;;;;;;;-1.04;56.83;98988.28;10434586;28;20048;-67
2023/12/01 21:31:51;;;;;;;4.63;2.22;;;;;;;-1.00;56.62;98980.44;10434523;28;20574;-66
2023/12/01 21:36:52;;;;;;;5.90;2.60;;;;;;;-1.04;56.25;98975.44;10434606;28;20119;-66
2023/12/01 21:41:55;;;;;;;6.82;2.30;;;;;;;-1.11;55.87;98982.47;10434896;28;20051;-66
2023/12/01 21:46:57;;;;;;;7.22;2.70;;;;;;;-1.19;55.30;98979.28;10434723;28;20040;-67
2023/12/01 21:51:58;;;;;;;6.13;2.40;;;;;;;-1.20;56.38;98980.16;10433279;28;20187;-66
2023/12/01 21:57:00;;;;;;;4.18;1.98;;;;;;;-1.01;56.07;98983.88;10432808;28;20051;-66
2023/12/01 22:02:03;;;;;;;6.22;2.28;;;;;;;-1.16;55.91;98984.31;10431066;28;20073;-66
2023/12/01 22:07:05;;;;;;;5.90;2.40;;;;;;;-1.25;55.78;98990.53;10433336;28;20408;-66
2023/12/01 22:12:07;;;;;;;3.60;2.30;;;;;;;-1.23;56.02;98993.06;10432828;28;20044;-66
2023/12/01 22:17:09;;;;;;;5.63;2.55;;;;;;;-1.08;56.29;98992.63;10432695;28;20070;-67
2023/12/01 22:22:11;;;;;;;4.35;2.20;;;;;;;-1.03;55.66;99001.06;10433222;28;20037;-66
2023/12/01 22:27:21;;;;;;;5.47;2.63;;;;;;;-1.09;55.42;98996.09;10407770;28;20931;-67
2023/12/01 22:32:23;;;;;;;4.15;2.17;;;;;;;-1.15;55.86;98991.94;10431668;28;20448;-67
2023/12/01 22:37:25;;;;;;;6.45;2.88;;;;;;;-1.14;55.89;98992.81;10430835;28;20138;-67
2023/12/01 22:42:27;;;;;;;6.40;2.65;;;;;;;-1.07;55.83;99003.75;10431224;28;20055;-66
2023/12/01 22:47:30;;;;;;;5.10;2.15;;;;;;;-1.07;55.43;98993.47;10431845;28;20521;-67
2023/12/01 22:52:32;;;;;;;6.32;2.13;;;;;;;-1.05;55.30;99002.81;10431108;28;20850;-66
2023/12/01 22:57:34;;;;;;;5.80;2.47;;;;;;;-1.00;55.41;99010.41;10431185;28;20795;-67
2023/12/01 23:02:36;;;;;;;5.45;2.28;;;;;;;-0.92;55.87;99011.84;10431331;28;20718;-66
2023/12/01 23:07:38;;;;;;;4.55;1.98;;;;;;;-1.05;55.28;99012.25;10432631;28;20045;-66
2023/12/01 23:12:40;;;;;;;5.18;2.30;;;;;;;-1.22;55.24;99021.25;10415409;28;20071;-67
2023/12/01 23:17:42;;;;;;;5.15;2.83;;;;;;;-1.20;54.97;99028.88;10414804;28;20053;-66
2023/12/01 23:22:58;;;;;;;4.25;2.20;;;;;;;-1.17;54.49;99023.69;10433241;28;20132;-66
2023/12/01 23:28:00;;;;;;;4.07;2.20;;;;;;;-1.15;55.16;99017.59;10433098;28;20049;-67
2023/12/01 23:33:02;;;;;;;4.45;2.08;;;;;;;-1.37;54.56;99023.38;10415901;28;20045;-66
2023/12/01 23:38:05;;;;;;;4.20;1.90;;;;;;;-1.35;55.37;99024.19;10399220;28;20610;-66
2023/12/01 23:43:06;;;;;;;4.68;2.22;;;;;;;-1.32;54.86;99018.94;10438319;28;20037;-66